Time;durP1;ratioP1;P1;durP2;ratioP2;P2;SDS_P1;SDS_P2;PMS_P1;PMS_P2;Temp;Humidity;BMP_temperature;BMP_pressure;BME280_temperature;BME280_humidity;BME280_pressure;Samples;Min_cycle;Max_cycle;Signal;HPM_P1;HPM_P2
2022/05/11 00:01:46;;;;;;;5.93;1.52;;;15.40;99.90;;;;;;5046822;28;20116;-68
2022/05/11 00:04:12;;;;;;;5.25;0.63;;;15.40;99.90;;;;;;5045847;28;20094;-70
2022/05/11 00:06:38;;;;;;;4.40;0.70;;;15.40;99.90;;;;;;5045936;28;20037;-69
2022/05/11 00:09:07;;;;;;;7.40;1.35;;;15.40;99.90;;;;;;5047760;28;20040;-68
2022/05/11 00:11:33;;;;;;;4.70;0.90;;;15.40;99.90;;;;;;5049887;28;20044;-68
2022/05/11 00:13:59;;;;;;;8.93;1.02;;;15.40;99.90;;;;;;5049904;28;20043;-68
2022/05/11 00:16:27;;;;;;;4.78;0.70;;;15.40;99.90;;;;;;5050352;28;20063;-69
2022/05/11 00:18:53;;;;;;;9.20;2.05;;;15.30;99.90;;;;;;5050668;28;20036;-69
2022/05/11 00:21:19;;;;;;;8.32;1.63;;;15.30;99.90;;;;;;5049810;28;20660;-67
2022/05/11 00:23:45;;;;;;;4.55;0.80;;;15.30;99.90;;;;;;5048878;28;20029;-69
2022/05/11 00:26:11;;;;;;;2.10;0.65;;;15.30;99.90;;;;;;5046688;28;20489;-68
2022/05/11 00:28:36;;;;;;;5.15;1.45;;;15.30;99.90;;;;;;5049680;28;20187;-68
2022/05/11 00:31:02;;;;;;;5.20;0.93;;;15.20;99.90;;;;;;5050274;28;20123;-68
2022/05/11 00:33:28;;;;;;;5.43;1.10;;;15.20;99.90;;;;;;5049865;28;20032;-68
2022/05/11 00:35:54;;;;;;;3.65;1.15;;;15.20;99.90;;;;;;5047270;28;20501;-70
2022/05/11 00:38:22;;;;;;;6.25;1.20;;;15.20;99.90;;;;;;5049596;28;20043;-68
2022/05/11 00:40:55;;;;;;;5.03;2.13;;;15.20;99.90;;;;;;5042244;28;20037;-68
2022/05/11 00:43:58;;;;;;;6.03;1.23;;;15.10;99.90;;;;;;5049330;28;20493;-70
2022/05/11 00:46:38;;;;;;;4.75;1.00;;;15.10;99.90;;;;;;5042914;28;20041;-69
2022/05/11 00:51:58;;;;;;;4.55;1.35;;;15.00;99.90;;;;;;5044129;28;20063;-68
2022/05/11 00:54:27;;;;;;;7.55;1.98;;;15.10;99.90;;;;;;5049067;28;20037;-69
2022/05/11 00:56:56;;;;;;;6.97;1.52;;;15.10;99.90;;;;;;5049208;28;20036;-69
2022/05/11 00:59:25;;;;;;;4.45;1.52;;;15.10;99.90;;;;;;5049399;28;20049;-69
2022/05/11 01:01:52;;;;;;;11.40;2.00;;;15.10;99.90;;;;;;5043393;28;20044;-70
2022/05/11 01:04:20;;;;;;;6.28;1.65;;;15.10;99.90;;;;;;5040953;28;20076;-68
2022/05/11 01:06:46;;;;;;;3.03;1.42;;;15.10;99.90;;;;;;5048011;28;20076;-69
2022/05/11 01:09:13;;;;;;;4.82;1.40;;;15.10;99.90;;;;;;5049257;28;20033;-69
2022/05/11 01:11:43;;;;;;;5.78;1.48;;;15.10;99.90;;;;;;5049527;28;20083;-69
2022/05/11 01:14:12;;;;;;;6.75;1.33;;;15.10;99.90;;;;;;5049157;28;20041;-69
2022/05/11 01:16:40;;;;;;;3.95;1.45;;;15.10;99.90;;;;;;5048056;28;20112;-69
2022/05/11 01:19:07;;;;;;;5.70;1.50;;;15.20;99.90;;;;;;5048873;28;20025;-69
2022/05/11 01:21:49;;;;;;;8.20;1.30;;;15.10;99.90;;;;;;5049292;28;20029;-69
2022/05/11 01:24:28;;;;;;;5.78;1.50;;;15.10;99.90;;;;;;5049303;28;23102;-68
2022/05/11 01:26:56;;;;;;;6.65;1.33;;;15.10;99.90;;;;;;5046224;28;20072;-68
2022/05/11 01:29:22;;;;;;;4.40;1.45;;;15.10;99.90;;;;;;5048526;28;20033;-71
2022/05/11 01:31:48;;;;;;;4.00;1.40;;;15.10;99.90;;;;;;5047908;28;20146;-69
2022/05/11 01:34:19;;;;;;;6.10;2.17;;;15.10;99.90;;;;;;5048353;28;20047;-68
2022/05/11 01:36:49;;;;;;;11.63;1.95;;;15.00;99.90;;;;;;5038227;28;20045;-68
2022/05/11 01:39:14;;;;;;;6.72;1.80;;;15.00;99.90;;;;;;5040474;28;20025;-70
2022/05/11 01:41:42;;;;;;;6.75;1.20;;;15.00;99.90;;;;;;5047469;28;20497;-69
2022/05/11 01:44:11;;;;;;;5.63;1.75;;;15.00;99.90;;;;;;5048107;28;20029;-69
2022/05/11 01:46:38;;;;;;;8.90;1.92;;;15.00;99.90;;;;;;5048680;28;20091;-69
2022/05/11 01:49:05;;;;;;;8.00;1.88;;;15.00;99.90;;;;;;5048502;28;20033;-69
2022/05/11 01:51:31;;;;;;;7.03;1.58;;;15.00;99.90;;;;;;5047290;28;20036;-68
2022/05/11 01:53:56;;;;;;;5.45;2.03;;;15.00;99.90;;;;;;5048294;28;20404;-70
2022/05/11 01:56:24;;;;;;;4.88;1.45;;;15.00;99.90;;;;;;5047193;28;20041;-69
2022/05/11 01:58:51;;;;;;;8.15;1.45;;;15.00;99.90;;;;;;5048479;28;20041;-69
2022/05/11 02:01:22;;;;;;;4.93;1.60;;;15.00;99.90;;;;;;5047971;28;20493;-69
2022/05/11 02:03:47;;;;;;;7.25;1.95;;;15.00;99.90;;;;;;5041535;28;20037;-69
2022/05/11 02:08:57;;;;;;;7.60;1.38;;;15.00;99.90;;;;;;5043648;28;20082;-68
2022/05/11 02:11:23;;;;;;;4.70;1.77;;;15.00;99.90;;;;;;5047628;28;20041;-68
2022/05/11 02:13:49;;;;;;;5.32;1.60;;;15.00;99.90;;;;;;5048329;28;20032;-68
2022/05/11 02:16:15;;;;;;;5.10;1.75;;;14.90;99.90;;;;;;5048242;28;20041;-69
2022/05/11 02:18:41;;;;;;;4.10;1.60;;;14.90;99.90;;;;;;5048114;28;20039;-69
2022/05/11 02:21:07;;;;;;;8.52;2.58;;;14.90;99.90;;;;;;5048261;28;20036;-69
2022/05/11 02:23:34;;;;;;;5.72;1.77;;;14.90;99.90;;;;;;5047593;28;20033;-69
2022/05/11 02:26:00;;;;;;;6.15;1.77;;;15.00;99.90;;;;;;5044690;28;20046;-69
2022/05/11 02:28:25;;;;;;;6.57;1.58;;;15.00;99.90;;;;;;5047731;28;20389;-69
2022/05/11 02:30:53;;;;;;;8.93;1.77;;;14.90;99.90;;;;;;5046466;28;20045;-68
2022/05/11 02:33:20;;;;;;;8.07;1.85;;;15.00;99.90;;;;;;5046788;28;20213;-68
2022/05/11 02:35:47;;;;;;;4.53;1.30;;;14.90;99.90;;;;;;5045911;28;20056;-68
2022/05/11 02:38:23;;;;;;;2.22;1.08;;;14.90;99.90;;;;;;5047692;28;20448;-71
2022/05/11 02:40:52;;;;;;;5.75;1.38;;;14.90;99.90;;;;;;5041835;28;20041;-67
2022/05/11 02:43:18;;;;;;;11.63;1.60;;;14.90;99.90;;;;;;5045509;28;20033;-69
2022/05/11 02:45:45;;;;;;;4.85;2.00;;;14.90;99.90;;;;;;5048816;28;20079;-69
2022/05/11 02:48:13;;;;;;;9.88;1.60;;;14.90;99.90;;;;;;5040527;28;20097;-68
2022/05/11 02:50:43;;;;;;;10.82;1.40;;;14.90;99.90;;;;;;5048890;28;20074;-69
2022/05/11 02:53:11;;;;;;;3.60;1.00;;;14.90;99.90;;;;;;5048293;28;20029;-68
2022/05/11 02:55:37;;;;;;;7.03;1.23;;;14.90;99.90;;;;;;5047409;28;20098;-67
2022/05/11 02:58:04;;;;;;;11.52;1.17;;;14.90;99.90;;;;;;5047133;28;20040;-69
2022/05/11 03:00:31;;;;;;;6.38;0.93;;;14.90;99.90;;;;;;5045739;28;20022;-67
2022/05/11 03:02:58;;;;;;;5.53;1.30;;;14.90;99.90;;;;;;5047251;28;20551;-68
2022/05/11 03:05:23;;;;;;;3.80;0.80;;;14.90;99.90;;;;;;5046917;28;20672;-70
2022/05/11 03:07:49;;;;;;;8.52;2.00;;;14.90;99.90;;;;;;5047395;28;20123;-68
2022/05/11 03:10:14;;;;;;;4.05;1.08;;;14.90;99.90;;;;;;5046803;28;20057;-68
2022/05/11 03:12:40;;;;;;;3.28;1.63;;;14.90;99.90;;;;;;5045617;28;20051;-68
2022/05/11 03:15:07;;;;;;;4.15;0.80;;;14.90;99.90;;;;;;5046818;28;20029;-69
2022/05/11 03:17:33;;;;;;;3.90;0.70;;;14.90;99.90;;;;;;5046881;28;20036;-68
2022/05/11 03:19:58;;;;;;;4.18;0.70;;;14.90;99.90;;;;;;5046427;28;20033;-69
2022/05/11 03:22:24;;;;;;;2.03;0.47;;;14.90;99.90;;;;;;5046617;28;20124;-68
2022/05/11 03:24:50;;;;;;;4.85;1.05;;;14.90;99.90;;;;;;5044421;28;20029;-68
2022/05/11 03:27:15;;;;;;;2.22;0.63;;;14.90;99.90;;;;;;5046703;28;20037;-71
2022/05/11 03:29:41;;;;;;;4.05;0.50;;;14.90;99.90;;;;;;5033318;28;20405;-70
2022/05/11 03:34:51;;;;;;;3.40;0.60;;;15.00;99.90;;;;;;5042113;28;20495;-68
2022/05/11 03:37:18;;;;;;;3.60;0.63;;;15.00;99.90;;;;;;5044032;28;20053;-69
2022/05/11 03:39:44;;;;;;;12.40;0.52;;;14.90;99.90;;;;;;5046888;28;20055;-69
2022/05/11 03:42:16;;;;;;;2.83;0.50;;;15.00;99.90;;;;;;5045483;28;20060;-68
2022/05/11 03:44:42;;;;;;;4.25;0.50;;;14.90;99.90;;;;;;5036420;28;20041;-68
2022/05/11 03:47:08;;;;;;;3.15;0.40;;;14.90;99.90;;;;;;5046445;28;20050;-68
2022/05/11 03:49:34;;;;;;;3.42;0.40;;;14.90;99.90;;;;;;5046439;28;20029;-67
2022/05/11 03:52:00;;;;;;;2.60;0.50;;;14.90;99.90;;;;;;5046688;28;20040;-70
2022/05/11 03:54:26;;;;;;;2.72;0.50;;;14.90;99.90;;;;;;5044647;28;20041;-69
2022/05/11 03:56:52;;;;;;;5.57;0.47;;;14.90;99.90;;;;;;5046274;28;20179;-70
2022/05/11 03:59:18;;;;;;;2.85;0.95;;;14.80;99.90;;;;;;5046056;28;20079;-69
2022/05/11 04:01:44;;;;;;;3.30;0.43;;;14.80;99.90;;;;;;5045949;28;20044;-68
2022/05/11 04:04:10;;;;;;;2.83;0.75;;;14.80;99.90;;;;;;5045358;28;20397;-68
2022/05/11 04:06:35;;;;;;;3.50;0.60;;;14.90;99.90;;;;;;5044736;28;20489;-68
2022/05/11 04:09:01;;;;;;;3.47;0.77;;;14.80;99.90;;;;;;5046503;28;20188;-68
2022/05/11 04:11:28;;;;;;;2.38;0.93;;;14.80;99.90;;;;;;5045715;28;20036;-70
2022/05/11 04:13:55;;;;;;;3.33;0.63;;;14.80;99.90;;;;;;5046633;28;20129;-69
2022/05/11 04:16:21;;;;;;;4.03;0.40;;;14.80;99.90;;;;;;5046239;28;20033;-70
2022/05/11 04:18:47;;;;;;;3.40;0.60;;;14.80;99.90;;;;;;5050782;28;20029;-69
2022/05/11 04:21:13;;;;;;;6.07;1.33;;;14.80;99.90;;;;;;5051996;28;20036;-67
2022/05/11 04:23:40;;;;;;;1.70;0.40;;;14.80;99.90;;;;;;5046201;28;20124;-69
2022/05/11 04:26:07;;;;;;;3.53;0.50;;;14.90;99.90;;;;;;5035682;28;20029;-69
2022/05/11 04:28:33;;;;;;;1.90;0.40;;;14.90;99.90;;;;;;5045124;28;20505;-68
2022/05/11 04:31:03;;;;;;;4.10;0.70;;;14.90;99.90;;;;;;5036255;28;20092;-69
2022/05/11 04:33:29;;;;;;;;;;;14.90;99.90;;;;;;5032539;28;20025;-68
2022/05/11 04:35:54;;;;;;;2.97;0.60;;;14.90;99.90;;;;;;5030542;28;19920;-69
2022/05/11 04:38:20;;;;;;;4.55;0.95;;;15.00;99.90;;;;;;5043622;28;20098;-69
2022/05/11 04:40:45;;;;;;;2.10;0.32;;;15.00;99.90;;;;;;5045145;28;20036;-69
2022/05/11 04:43:11;;;;;;;4.97;0.55;;;15.00;99.90;;;;;;5028207;28;20498;-70
2022/05/11 04:45:39;;;;;;;2.67;0.50;;;15.00;99.90;;;;;;5034392;28;24016;-69
2022/05/11 04:48:05;;;;;;;3.88;0.70;;;15.10;99.90;;;;;;5046252;28;20504;-67
2022/05/11 04:50:31;;;;;;;2.95;0.90;;;15.10;99.90;;;;;;5045530;28;20029;-70
2022/05/11 04:52:56;;;;;;;5.03;0.52;;;15.10;99.90;;;;;;5034181;28;20805;-69
2022/05/11 04:55:22;;;;;;;1.30;0.40;;;15.10;99.90;;;;;;5031470;28;20703;-69
2022/05/11 04:57:49;;;;;;;7.20;0.93;;;15.10;99.90;;;;;;5036779;28;20108;-68
2022/05/11 05:00:15;;;;;;;1.85;0.40;;;15.10;99.90;;;;;;5038043;28;20033;-68
2022/05/11 05:02:41;;;;;;;3.72;0.32;;;15.10;99.90;;;;;;5030467;28;20103;-68
2022/05/11 05:05:09;;;;;;;5.28;0.75;;;15.10;99.90;;;;;;5034380;28;20030;-70
2022/05/11 05:07:35;;;;;;;1.42;0.20;;;15.20;99.90;;;;;;5033595;28;20033;-69
2022/05/11 05:10:06;;;;;;;5.68;0.77;;;15.30;99.90;;;;;;5028897;28;20404;-68
2022/05/11 05:12:31;;;;;;;5.28;0.73;;;15.40;99.90;;;;;;5034833;28;20073;-68
2022/05/11 05:14:57;;;;;;;3.03;0.43;;;15.50;99.90;;;;;;5035687;28;20441;-70
2022/05/11 05:17:23;;;;;;;3.42;0.50;;;15.60;99.90;;;;;;5032689;28;20458;-70
2022/05/11 05:19:49;;;;;;;3.00;0.38;;;15.60;99.90;;;;;;5029404;28;20030;-69
2022/05/11 05:22:15;;;;;;;2.80;0.60;;;15.70;99.90;;;;;;5032863;28;20026;-68
2022/05/11 05:24:42;;;;;;;5.13;0.90;;;15.70;99.90;;;;;;5030134;28;20028;-69
2022/05/11 05:27:09;;;;;;;2.00;0.30;;;15.70;99.90;;;;;;5029375;28;20049;-70
2022/05/11 05:32:24;;;;;;;2.22;0.45;;;15.80;99.90;;;;;;5016189;28;20037;-69
2022/05/11 05:34:49;;;;;;;2.10;0.40;;;15.90;99.90;;;;;;5031590;28;20497;-71
2022/05/11 05:37:17;;;;;;;2.92;0.43;;;16.00;99.90;;;;;;5030113;28;20079;-69
2022/05/11 05:39:44;;;;;;;3.78;0.60;;;16.00;99.90;;;;;;5032749;28;20029;-67
2022/05/11 05:42:20;;;;;;;3.60;0.52;;;16.20;99.90;;;;;;5027446;28;20021;-69
2022/05/11 05:44:46;;;;;;;6.70;1.17;;;16.30;99.90;;;;;;5029034;28;20045;-68
2022/05/11 05:47:13;;;;;;;5.32;0.47;;;16.40;99.90;;;;;;5035705;28;20029;-67
2022/05/11 05:49:39;;;;;;;4.57;0.90;;;16.50;99.90;;;;;;5032183;28;20045;-69
2022/05/11 05:52:04;;;;;;;5.72;0.40;;;17.00;99.90;;;;;;5028873;28;20034;-69
2022/05/11 05:54:35;;;;;;;1.27;0.40;;;18.10;99.30;;;;;;5032288;28;20040;-68
2022/05/11 05:57:02;;;;;;;2.65;0.40;;;18.60;97.00;;;;;;5029078;28;20071;-69
2022/05/11 05:59:27;;;;;;;4.10;0.73;;;18.90;97.50;;;;;;5031004;28;20517;-69
2022/05/11 06:01:53;;;;;;;2.95;0.80;;;19.50;96.40;;;;;;5030148;28;20040;-69
2022/05/11 06:04:19;;;;;;;2.88;0.47;;;20.00;94.40;;;;;;5035384;28;20088;-69
2022/05/11 06:06:45;;;;;;;6.40;0.50;;;20.60;92.60;;;;;;5029782;28;20576;-68
2022/05/11 06:09:10;;;;;;;5.00;0.68;;;21.60;91.90;;;;;;5030583;28;20132;-69
2022/05/11 06:11:37;;;;;;;3.80;1.08;;;22.60;89.40;;;;;;5033128;28;20045;-69
2022/05/11 06:14:03;;;;;;;1.48;0.47;;;23.80;86.70;;;;;;5032766;28;20026;-69
2022/05/11 06:16:29;;;;;;;4.53;0.73;;;25.00;81.10;;;;;;5029891;28;20045;-71
2022/05/11 06:18:55;;;;;;;1.95;0.50;;;26.10;76.80;;;;;;5039963;28;20043;-70
2022/05/11 06:21:20;;;;;;;7.32;0.65;;;26.50;72.50;;;;;;5035490;28;20604;-69
2022/05/11 06:23:46;;;;;;;2.08;0.60;;;26.40;70.30;;;;;;5032861;28;20037;-69
2022/05/11 06:26:13;;;;;;;4.57;0.65;;;25.60;69.60;;;;;;5028585;28;20037;-69
2022/05/11 06:28:40;;;;;;;3.92;0.60;;;25.40;68.80;;;;;;5035574;28;20076;-70
2022/05/11 06:31:07;;;;;;;4.93;0.68;;;24.10;70.50;;;;;;5033069;28;20103;-70
2022/05/11 06:33:33;;;;;;;1.05;0.35;;;23.00;72.30;;;;;;5029673;28;20413;-70
2022/05/11 06:35:59;;;;;;;2.83;0.55;;;22.00;74.40;;;;;;5033979;28;20037;-69
2022/05/11 06:38:25;;;;;;;5.25;0.60;;;21.30;76.30;;;;;;5031309;28;20040;-68
2022/05/11 06:40:51;;;;;;;2.60;0.68;;;20.70;77.90;;;;;;5031096;28;20025;-68
2022/05/11 06:43:16;;;;;;;5.82;0.65;;;20.20;79.50;;;;;;5031929;28;20405;-68
2022/05/11 06:45:42;;;;;;;5.80;0.57;;;19.80;81.50;;;;;;5031479;28;20034;-69
2022/05/11 06:48:08;;;;;;;5.00;0.65;;;19.50;82.50;;;;;;5028092;28;20116;-67
2022/05/11 06:50:34;;;;;;;3.38;0.82;;;19.50;83.40;;;;;;5029764;28;20029;-68
2022/05/11 06:53:11;;;;;;;3.10;0.85;;;19.90;83.10;;;;;;5033411;28;20710;-68
2022/05/11 07:01:07;;;;;;;11.88;1.98;;;19.70;84.90;;;;;;5029120;28;20618;-69
2022/05/11 07:03:32;;;;;;;2.05;0.30;;;20.10;85.60;;;;;;5032921;28;20041;-70
2022/05/11 07:05:58;;;;;;;4.25;1.05;;;21.40;82.10;;;;;;5030613;28;20124;-69
2022/05/11 07:08:24;;;;;;;3.42;0.70;;;22.20;78.20;;;;;;5031012;28;20402;-68
2022/05/11 07:13:38;;;;;;;4.03;0.80;;;24.80;74.60;;;;;;5017490;28;20033;-67
2022/05/11 07:16:04;;;;;;;2.17;0.30;;;25.60;71.40;;;;;;5028282;28;20021;-69
2022/05/11 07:18:29;;;;;;;2.97;0.63;;;26.20;69.30;;;;;;5032266;28;20035;-70
2022/05/11 07:20:55;;;;;;;3.22;0.68;;;26.30;69.40;;;;;;5035612;28;20043;-69
2022/05/11 07:23:20;;;;;;;2.50;0.57;;;26.30;66.10;;;;;;5032523;28;20064;-70
2022/05/11 07:25:46;;;;;;;4.63;0.70;;;26.60;67.50;;;;;;5028591;28;20045;-70
2022/05/11 07:28:12;;;;;;;7.78;0.85;;;27.30;63.10;;;;;;5033896;28;20033;-70
2022/05/11 07:30:38;;;;;;;4.03;0.43;;;27.80;64.40;;;;;;5027557;28;20037;-70
2022/05/11 07:33:04;;;;;;;3.47;0.90;;;28.30;61.70;;;;;;5029703;28;20059;-71
2022/05/11 07:35:30;;;;;;;4.00;0.80;;;28.20;60.90;;;;;;5034602;28;20033;-70
2022/05/11 07:37:56;;;;;;;4.00;0.60;;;27.80;61.00;;;;;;5032619;28;20032;-67
2022/05/11 07:40:23;;;;;;;4.25;1.10;;;27.30;60.70;;;;;;5030723;28;20033;-71
2022/05/11 07:42:49;;;;;;;6.43;0.82;;;26.60;61.30;;;;;;5033682;28;20033;-70
2022/05/11 07:45:17;;;;;;;2.15;0.65;;;25.80;63.00;;;;;;5033509;28;20064;-71
2022/05/11 07:47:43;;;;;;;2.25;0.40;;;25.10;62.00;;;;;;5031871;28;20035;-69
2022/05/11 07:50:13;;;;;;;4.35;0.47;;;24.50;64.90;;;;;;5030518;28;20050;-69
2022/05/11 07:52:39;;;;;;;4.38;0.25;;;24.00;64.90;;;;;;5034481;28;20490;-69
2022/05/11 07:55:05;;;;;;;4.20;0.95;;;23.80;68.00;;;;;;5030027;28;20471;-70
2022/05/11 08:00:16;;;;;;;2.25;0.38;;;23.00;68.10;;;;;;5032063;28;20088;-69
2022/05/11 08:02:41;;;;;;;2.17;0.35;;;22.90;69.20;;;;;;5032755;28;20037;-68
2022/05/11 08:05:10;;;;;;;5.38;0.60;;;22.70;67.80;;;;;;5029105;28;20032;-69
2022/05/11 08:07:42;;;;;;;1.77;0.38;;;22.80;68.40;;;;;;5028735;28;20033;-69
2022/05/11 08:10:15;;;;;;;1.88;0.40;;;22.70;69.90;;;;;;5033283;28;20119;-69
2022/05/11 08:12:41;;;;;;;4.32;0.65;;;22.60;68.70;;;;;;5031023;28;20241;-69
2022/05/11 08:15:07;;;;;;;5.03;0.40;;;22.50;69.10;;;;;;5029612;28;20848;-69
2022/05/11 08:17:35;;;;;;;2.78;0.55;;;22.40;69.00;;;;;;5031825;28;20070;-68
2022/05/11 08:20:02;;;;;;;2.78;0.32;;;22.20;70.70;;;;;;5032988;28;20025;-68
2022/05/11 08:22:28;;;;;;;1.23;0.30;;;22.30;69.70;;;;;;5032471;28;20435;-68
2022/05/11 08:24:56;;;;;;;2.80;0.70;;;22.40;69.70;;;;;;5032852;28;20029;-70
2022/05/11 08:27:26;;;;;;;2.20;0.70;;;22.30;69.90;;;;;;5030835;28;20041;-69
2022/05/11 08:35:20;;;;;;;2.85;0.50;;;22.40;69.70;;;;;;5036190;28;20091;-69
2022/05/11 08:37:46;;;;;;;2.85;0.50;;;22.30;70.60;;;;;;5034972;28;20046;-69
2022/05/11 08:40:39;;;;;;;3.00;0.68;;;22.40;71.00;;;;;;5038926;28;20030;-69
2022/05/11 08:43:09;;;;;;;0.50;0.20;;;22.50;71.30;;;;;;5037948;28;20037;-70
2022/05/11 08:45:39;;;;;;;;;;;22.50;70.20;;;;;;5038888;28;20039;-69
2022/05/11 08:48:08;;;;;;;;;;;22.40;71.00;;;;;;5041703;28;19913;-68
2022/05/11 08:50:41;;;;;;;2.88;0.30;;;22.30;70.40;;;;;;5029670;28;19920;-70
2022/05/11 08:53:35;;;;;;;4.85;0.55;;;22.30;70.50;;;;;;5033289;28;20113;-69
2022/05/11 08:56:07;;;;;;;2.05;0.20;;;22.30;69.40;;;;;;5032827;28;20512;-69
2022/05/11 08:58:52;;;;;;;1.35;0.20;;;22.20;68.60;;;;;;5036228;28;20041;-68
2022/05/11 09:01:29;;;;;;;8.40;1.50;;;22.30;67.40;;;;;;5035832;28;20343;-68
2022/05/11 09:03:56;;;;;;;2.83;0.22;;;22.30;66.80;;;;;;5027913;28;20033;-69
2022/05/11 09:06:29;;;;;;;3.65;0.52;;;22.30;67.60;;;;;;5036696;28;20024;-66
2022/05/11 09:08:57;;;;;;;2.08;0.30;;;22.40;67.30;;;;;;5035575;28;20400;-69
2022/05/11 09:11:53;;;;;;;4.75;0.28;;;22.40;67.90;;;;;;5037644;28;20043;-70
2022/05/11 09:14:31;;;;;;;2.78;0.68;;;22.40;67.30;;;;;;5028705;28;20056;-69
2022/05/11 09:16:57;;;;;;;6.80;0.50;;;22.40;67.20;;;;;;5037565;28;20152;-68
2022/05/11 09:19:29;;;;;;;3.67;0.82;;;22.30;67.00;;;;;;5038884;28;20029;-66
2022/05/11 09:22:11;;;;;;;5.55;0.55;;;22.30;68.00;;;;;;5037381;28;20037;-68
2022/05/11 09:24:50;;;;;;;3.13;0.70;;;22.30;68.10;;;;;;5039259;28;20033;-69
2022/05/11 09:27:33;;;;;;;3.60;0.60;;;22.30;68.80;;;;;;5033222;28;20053;-67
2022/05/11 09:30:06;;;;;;;7.88;0.60;;;22.50;69.90;;;;;;5037380;28;20033;-69
2022/05/11 09:32:42;;;;;;;3.92;1.10;;;22.50;69.70;;;;;;5036124;28;20029;-68
2022/05/11 09:35:14;;;;;;;3.35;0.98;;;22.50;70.90;;;;;;5032829;28;20045;-66
2022/05/11 09:37:42;;;;;;;4.30;1.13;;;22.50;70.30;;;;;;5036298;28;20119;-66
2022/05/11 09:40:20;;;;;;;4.25;0.75;;;22.40;69.70;;;;;;5030594;28;20037;-68
2022/05/11 09:42:59;;;;;;;9.18;1.05;;;22.30;70.00;;;;;;5035082;28;20060;-68
2022/05/11 09:45:47;;;;;;;6.65;0.50;;;22.30;71.00;;;;;;5032375;28;20057;-67
2022/05/11 09:48:23;;;;;;;7.50;0.73;;;22.30;72.00;;;;;;5034932;28;20408;-68
2022/05/11 09:50:55;;;;;;;2.45;0.52;;;22.30;72.50;;;;;;5035788;28;20108;-70
2022/05/11 09:53:34;;;;;;;6.03;0.77;;;22.50;73.70;;;;;;5032993;28;20477;-66
2022/05/11 09:56:32;;;;;;;7.85;1.10;;;22.50;73.90;;;;;;5037253;28;20064;-68
2022/05/11 09:59:18;;;;;;;6.15;0.88;;;22.90;73.10;;;;;;5036724;28;20059;-67
2022/05/11 10:01:44;;;;;;;4.53;0.77;;;23.00;73.80;;;;;;5033685;28;20041;-68
2022/05/11 10:04:12;;;;;;;11.45;1.98;;;23.00;72.60;;;;;;5036187;28;20041;-68
2022/05/11 10:06:49;;;;;;;6.63;0.68;;;22.90;71.70;;;;;;5027974;28;20030;-69
2022/05/11 10:09:15;;;;;;;3.45;0.30;;;22.80;69.80;;;;;;5032749;28;20080;-68
2022/05/11 10:11:50;;;;;;;4.85;0.60;;;22.70;69.50;;;;;;5034984;28;20037;-67
2022/05/11 10:22:52;;;;;;;4.75;0.55;;;22.80;70.80;;;;;;5033432;28;20044;-68
2022/05/11 10:25:40;;;;;;;8.45;1.05;;;22.80;72.20;;;;;;5033893;28;20575;-69
2022/05/11 10:28:43;;;;;;;5.15;0.55;;;22.70;72.50;;;;;;5031877;28;20041;-68
2022/05/11 10:31:14;;;;;;;5.22;1.38;;;22.90;71.20;;;;;;5031096;28;20576;-69
2022/05/11 10:33:46;;;;;;;5.45;0.85;;;23.00;72.00;;;;;;5035416;28;20775;-66
2022/05/11 10:36:25;;;;;;;2.63;0.55;;;23.10;72.00;;;;;;5030719;28;20102;-68
2022/05/11 10:38:57;;;;;;;4.75;0.43;;;23.10;71.70;;;;;;5026922;28;20049;-68
2022/05/11 10:41:41;;;;;;;6.95;0.60;;;23.20;72.10;;;;;;5032794;28;20029;-67
2022/05/11 10:44:12;;;;;;;3.72;0.52;;;23.20;71.60;;;;;;5033675;28;20026;-68
2022/05/11 10:46:43;;;;;;;4.63;0.88;;;23.40;70.50;;;;;;5031790;28;20084;-68
2022/05/11 10:49:22;;;;;;;6.28;0.57;;;23.20;68.70;;;;;;5025653;28;20072;-70
2022/05/11 10:52:00;;;;;;;5.22;0.70;;;23.30;68.10;;;;;;5031476;28;20048;-69
2022/05/11 10:54:34;;;;;;;5.22;1.00;;;23.20;70.40;;;;;;5036044;28;20048;-70
2022/05/11 10:57:18;;;;;;;4.22;1.33;;;23.20;70.90;;;;;;5029015;28;20776;-70
2022/05/11 10:59:59;;;;;;;9.02;1.10;;;23.30;70.20;;;;;;5031344;28;20037;-69
2022/05/11 11:02:37;;;;;;;5.32;0.50;;;23.30;70.10;;;;;;5029711;28;20038;-67
2022/05/11 11:05:10;;;;;;;6.00;1.00;;;23.40;68.80;;;;;;5034141;28;20045;-68
2022/05/11 11:07:49;;;;;;;3.75;0.75;;;23.30;68.80;;;;;;5031867;28;20042;-69
2022/05/11 11:10:33;;;;;;;7.80;1.40;;;23.30;66.40;;;;;;5024355;28;20053;-68
2022/05/11 11:13:34;;;;;;;4.50;0.70;;;23.00;67.40;;;;;;5030297;28;20109;-69
2022/05/11 11:16:02;;;;;;;5.30;0.82;;;23.00;68.10;;;;;;5033477;28;20677;-69
2022/05/11 11:18:38;;;;;;;4.05;0.63;;;22.90;68.30;;;;;;5033974;28;20060;-68
2022/05/11 11:21:06;;;;;;;4.05;0.60;;;22.90;68.20;;;;;;5029541;28;20036;-68
2022/05/11 11:23:36;;;;;;;3.35;0.30;;;22.80;69.30;;;;;;5033328;28;20033;-69
2022/05/11 11:26:10;;;;;;;1.80;0.52;;;22.80;68.50;;;;;;5033046;28;20037;-66
2022/05/11 11:28:41;;;;;;;6.07;0.65;;;22.70;67.90;;;;;;5028817;28;20044;-68
2022/05/11 11:31:12;;;;;;;2.92;0.63;;;22.70;68.20;;;;;;5031257;28;20032;-68
2022/05/11 11:34:01;;;;;;;3.40;0.57;;;22.70;69.10;;;;;;5035784;28;20072;-68
2022/05/11 11:36:31;;;;;;;3.90;0.40;;;22.70;68.50;;;;;;5029440;28;20499;-68
2022/05/11 11:38:58;;;;;;;;;;;22.70;70.20;;;;;;5027972;28;20040;-67
2022/05/11 11:41:32;;;;;;;2.33;0.40;;;22.70;70.10;;;;;;5030733;28;19917;-69
2022/05/11 11:44:01;;;;;;;3.85;0.40;;;22.70;69.20;;;;;;5031154;28;20040;-69
2022/05/11 11:46:36;;;;;;;7.85;0.50;;;22.70;69.00;;;;;;5032630;28;20033;-69
2022/05/11 11:49:10;;;;;;;3.90;0.80;;;22.50;69.60;;;;;;5029873;28;20037;-69
2022/05/11 11:51:56;;;;;;;4.35;0.70;;;22.60;70.30;;;;;;5034923;28;20029;-69
2022/05/11 11:54:47;;;;;;;3.65;0.25;;;22.50;70.60;;;;;;5031035;28;20033;-70
2022/05/11 11:57:16;;;;;;;15.63;1.35;;;22.50;69.80;;;;;;5029716;28;20082;-69
2022/05/11 11:59:48;;;;;;;2.47;0.30;;;22.50;70.10;;;;;;5025400;28;20041;-68
2022/05/11 12:02:32;;;;;;;4.18;0.30;;;22.60;70.20;;;;;;5028870;28;20116;-68
2022/05/11 12:05:04;;;;;;;4.05;0.85;;;22.60;70.50;;;;;;5031122;28;20037;-69
2022/05/11 12:16:06;;;;;;;1.40;0.50;;;22.30;69.30;;;;;;5043156;28;20040;-69
2022/05/11 12:18:37;;;;;;;3.65;0.70;;;22.30;68.80;;;;;;5047064;28;20067;-68
2022/05/11 12:21:08;;;;;;;4.22;0.38;;;22.20;68.70;;;;;;5047548;28;20061;-68
2022/05/11 12:23:37;;;;;;;4.82;0.80;;;22.20;69.10;;;;;;5046469;28;20108;-68
2022/05/11 12:26:08;;;;;;;3.42;0.28;;;22.20;68.50;;;;;;5021165;28;20413;-67
2022/05/11 12:28:43;;;;;;;8.13;0.95;;;22.20;68.20;;;;;;5028489;28;20116;-66
2022/05/11 12:31:21;;;;;;;7.13;0.88;;;22.00;69.00;;;;;;5024365;28;20034;-68
2022/05/11 12:33:53;;;;;;;3.15;0.80;;;21.90;69.10;;;;;;5027335;28;20029;-67
2022/05/11 12:36:36;;;;;;;5.45;0.73;;;21.90;69.10;;;;;;5032472;28;20021;-68
2022/05/11 12:39:03;;;;;;;1.50;0.38;;;21.90;69.20;;;;;;5030560;28;20060;-67
2022/05/11 12:41:29;;;;;;;3.33;0.40;;;22.00;69.10;;;;;;5030583;28;20535;-68
2022/05/11 12:43:59;;;;;;;1.52;0.40;;;21.80;69.50;;;;;;5033996;28;20401;-67
2022/05/11 12:46:25;;;;;;;3.90;0.43;;;21.80;70.20;;;;;;5031333;28;20034;-69
2022/05/11 12:49:00;;;;;;;4.68;1.05;;;21.90;70.10;;;;;;5029456;28;20033;-67
2022/05/11 12:51:48;;;;;;;7.55;1.05;;;21.90;69.90;;;;;;5029641;28;20022;-68
2022/05/11 12:54:21;;;;;;;2.20;0.40;;;21.90;70.10;;;;;;5031923;28;20029;-69
2022/05/11 12:57:08;;;;;;;1.88;0.35;;;22.00;71.00;;;;;;5032304;28;20116;-68
2022/05/11 12:59:35;;;;;;;4.10;0.60;;;22.00;71.60;;;;;;5023765;28;20120;-67
2022/05/11 13:02:21;;;;;;;8.02;0.77;;;22.00;71.00;;;;;;5021322;28;20079;-67
2022/05/11 13:04:56;;;;;;;7.95;0.85;;;22.20;71.10;;;;;;5025855;28;20038;-67
2022/05/11 13:07:33;;;;;;;5.15;1.58;;;22.30;70.50;;;;;;5030138;28;20068;-67
2022/05/11 13:10:02;;;;;;;10.40;1.23;;;22.30;71.50;;;;;;5026026;28;20384;-68
2022/05/11 13:12:31;;;;;;;5.60;1.20;;;22.20;71.20;;;;;;5030175;28;20040;-67
2022/05/11 13:14:59;;;;;;;6.95;1.25;;;22.10;71.50;;;;;;5034831;28;20045;-68
2022/05/11 13:17:31;;;;;;;6.32;1.52;;;22.20;72.90;;;;;;5033825;28;22140;-67
2022/05/11 13:20:00;;;;;;;12.95;1.38;;;22.30;71.90;;;;;;5033396;28;20041;-69
2022/05/11 13:22:28;;;;;;;3.67;0.88;;;22.30;72.50;;;;;;5037184;28;20037;-68
2022/05/11 13:25:02;;;;;;;6.20;0.93;;;22.50;71.70;;;;;;5035465;28;20389;-67
2022/05/11 13:27:48;;;;;;;3.40;1.13;;;22.40;72.60;;;;;;5034097;28;20046;-68
2022/05/11 13:30:45;;;;;;;5.88;1.48;;;22.40;71.80;;;;;;5032670;28;20048;-68
2022/05/11 13:33:35;;;;;;;5.18;1.30;;;22.60;71.70;;;;;;5034475;28;20053;-67
2022/05/11 13:36:23;;;;;;;4.15;0.88;;;22.60;70.60;;;;;;5027709;28;20037;-67
2022/05/11 13:38:57;;;;;;;5.32;0.93;;;22.60;72.40;;;;;;5027345;28;20029;-67
2022/05/11 13:41:28;;;;;;;9.98;1.15;;;22.70;73.20;;;;;;5028235;28;20443;-70
2022/05/11 13:43:56;;;;;;;4.88;1.15;;;22.80;71.40;;;;;;5035915;28;20025;-67
2022/05/11 13:46:38;;;;;;;5.45;1.00;;;22.70;71.70;;;;;;5025121;28;20032;-69
2022/05/11 13:49:33;;;;;;;5.65;1.45;;;22.70;72.60;;;;;;5029031;28;20033;-69